createdAt,value
2018-07-30T17:50:38.547Z,8.35
2018-07-30T17:53:07.183Z,5.60
2018-07-30T17:55:35.535Z,5.42
2018-07-30T17:58:04.155Z,5.78
2018-07-30T18:00:33.345Z,5.30
2018-07-30T18:03:01.626Z,5.10
2018-07-30T18:05:30.322Z,5.22
2018-07-30T18:07:59.966Z,5.70
2018-07-30T18:10:28.656Z,11.93
2018-07-30T18:12:58.112Z,9.25
2018-07-30T18:15:27.033Z,7.75
2018-07-30T18:17:55.425Z,6.87
2018-07-30T18:20:23.714Z,6.37
2018-07-30T18:22:52.142Z,7.20
2018-07-30T18:25:20.425Z,5.78
2018-07-30T18:27:48.935Z,7.20
2018-07-30T18:30:18.238Z,5.83
2018-07-30T18:32:47.903Z,7.33
2018-07-30T18:35:16.622Z,13.45
2018-07-30T18:37:45.283Z,7.62
2018-07-30T18:40:15.768Z,7.67
2018-07-30T18:42:44.347Z,6.40
2018-07-30T18:45:12.772Z,5.72
2018-07-30T18:47:41.318Z,5.47
2018-07-30T18:50:11.496Z,7.00
2018-07-30T18:52:40.786Z,6.17
2018-07-30T18:55:09.583Z,5.53
2018-07-30T18:57:38.117Z,5.53
2018-07-30T19:00:07.445Z,4.78
2018-07-30T19:02:36.985Z,5.80
2018-07-30T19:05:06.167Z,6.03
2018-07-30T19:07:34.937Z,5.95
2018-07-30T19:10:04.125Z,5.62
2018-07-30T19:12:33.429Z,7.35
2018-07-30T19:15:02.845Z,8.25
2018-07-30T19:17:31.121Z,7.65
2018-07-30T19:19:59.809Z,7.08
2018-07-30T19:22:28.240Z,6.35
2018-07-30T19:24:56.452Z,5.90
2018-07-30T19:27:30.157Z,10.00
2018-07-30T19:29:58.866Z,11.35
2018-07-30T19:32:27.488Z,9.43
2018-07-30T19:34:55.812Z,7.78
2018-07-30T19:37:24.535Z,8.88
2018-07-30T19:39:53.272Z,10.05
2018-07-30T19:42:22.337Z,9.18
2018-07-30T19:44:50.614Z,7.80
2018-07-30T19:47:18.891Z,8.43
2018-07-30T19:49:47.434Z,10.28
2018-07-30T19:52:15.888Z,13.35
2018-07-30T19:54:44.306Z,12.63
2018-07-30T19:57:12.716Z,11.60
2018-07-30T19:59:41.192Z,10.15
2018-07-30T20:02:09.531Z,9.28
2018-07-30T20:04:38.734Z,7.30
2018-07-30T20:07:07.296Z,6.20
2018-07-30T20:09:35.875Z,6.20
2018-07-30T20:12:04.917Z,5.53
2018-07-30T20:14:33.390Z,5.10
2018-07-30T20:17:01.941Z,5.10
2018-07-30T20:19:30.295Z,5.12
2018-07-30T20:21:58.533Z,4.80
2018-07-30T20:24:27.529Z,4.72
2018-07-30T20:26:57.026Z,5.17
2018-07-30T20:29:27.846Z,5.00
2018-07-30T20:31:56.324Z,10.32
2018-07-30T20:34:24.813Z,9.45
2018-07-30T20:36:53.316Z,6.12
2018-07-30T20:39:23.200Z,5.17
2018-07-30T20:41:52.057Z,4.72
2018-07-30T20:44:21.003Z,6.33
2018-07-30T20:46:49.456Z,5.28
2018-07-30T20:49:18.680Z,5.10
2018-07-30T20:51:48.059Z,5.55
2018-07-30T20:54:16.514Z,5.30
2018-07-30T20:56:44.921Z,4.70
2018-07-30T20:59:13.387Z,4.95
2018-07-30T21:01:41.665Z,7.58
2018-07-30T21:04:10.074Z,5.90
2018-07-30T21:06:39.098Z,5.40
2018-07-30T21:09:08.573Z,5.20
2018-07-30T21:11:37.106Z,4.40
2018-07-30T21:14:05.623Z,5.30
2018-07-30T21:16:34.066Z,5.77
2018-07-30T21:19:02.476Z,5.57
2018-07-30T21:21:31.013Z,5.70
2018-07-30T21:23:59.338Z,4.57
2018-07-30T21:26:27.955Z,5.12
2018-07-30T21:28:56.548Z,5.10
2018-07-30T21:31:25.437Z,5.35
2018-07-30T21:33:53.827Z,5.27
2018-07-30T21:36:22.206Z,5.97
2018-07-30T21:38:50.946Z,5.35
2018-07-30T21:41:19.335Z,5.40
2018-07-30T21:43:47.715Z,5.37
2018-07-30T21:46:16.017Z,5.47
2018-07-30T21:48:45.174Z,5.20
2018-07-30T21:51:13.930Z,5.83
2018-07-30T21:53:42.261Z,5.10
2018-07-30T21:56:11.053Z,5.30
2018-07-30T21:58:40.163Z,6.17
2018-07-30T22:01:08.464Z,5.00
2018-07-30T22:03:37.890Z,4.75
2018-07-30T22:06:06.212Z,4.80
2018-07-30T22:08:34.477Z,4.85
2018-07-30T22:11:02.745Z,5.00
2018-07-30T22:13:30.980Z,5.03
2018-07-30T22:15:59.254Z,5.08
2018-07-30T22:18:27.473Z,5.23
2018-07-30T22:20:55.839Z,5.00
2018-07-30T22:23:24.589Z,5.08
2018-07-30T22:25:52.875Z,5.10
2018-07-30T22:28:21.026Z,5.50
2018-07-30T22:30:49.447Z,4.83
2018-07-30T22:33:18.558Z,5.35
2018-07-30T22:35:46.902Z,5.30
2018-07-30T22:38:15.227Z,5.40
2018-07-30T22:40:44.112Z,5.05
2018-07-30T22:43:12.559Z,5.92
2018-07-30T22:45:40.897Z,5.20
2018-07-30T22:48:09.079Z,5.60
2018-07-30T22:50:37.468Z,5.85
2018-07-30T22:53:05.874Z,5.25
2018-07-30T22:55:34.203Z,5.50
2018-07-30T22:58:02.688Z,5.23
2018-07-30T23:00:31.213Z,5.72
2018-07-30T23:03:00.213Z,5.70
2018-07-30T23:05:28.601Z,6.85
2018-07-30T23:07:57.878Z,5.37
2018-07-30T23:10:26.210Z,5.13
2018-07-30T23:12:55.115Z,5.20
2018-07-30T23:15:23.585Z,5.47
2018-07-30T23:17:53.092Z,5.17
2018-07-30T23:20:21.309Z,5.50
2018-07-30T23:22:49.644Z,6.07
2018-07-30T23:25:17.846Z,5.28
2018-07-30T23:27:46.056Z,5.50
2018-07-30T23:30:14.226Z,5.70
2018-07-30T23:32:42.451Z,5.47
2018-07-30T23:35:10.840Z,5.05
2018-07-30T23:37:39.261Z,6.60
2018-07-30T23:40:07.689Z,5.70
2018-07-30T23:42:35.982Z,5.37
2018-07-30T23:45:04.238Z,5.73
2018-07-30T23:47:32.414Z,6.45
2018-07-30T23:50:01.355Z,6.17
2018-07-30T23:52:29.689Z,5.20
2018-07-30T23:54:57.988Z,5.58
2018-07-30T23:57:26.199Z,5.37
2018-07-30T23:59:54.421Z,5.93
